createdAt,value
2023-02-02T00:02:02.837Z,9.73
2023-02-02T00:04:32.632Z,10.35
2023-02-02T00:06:59.933Z,9.82
2023-02-02T00:09:30.471Z,10.88
2023-02-02T00:11:58.255Z,9.80
2023-02-02T00:14:25.278Z,11.70
2023-02-02T00:16:53.981Z,11.13
2023-02-02T00:19:31.646Z,12.40
2023-02-02T00:21:58.776Z,16.60
2023-02-02T00:24:25.572Z,18.83
2023-02-02T00:26:57.402Z,17.52
2023-02-02T00:29:29.728Z,12.70
2023-02-02T00:31:57.198Z,13.52
2023-02-02T00:34:24.592Z,13.65
2023-02-02T00:36:51.625Z,13.13
2023-02-02T00:39:21.510Z,11.60
2023-02-02T00:41:48.637Z,11.95
2023-02-02T00:44:34.237Z,11.35
2023-02-02T00:47:01.050Z,10.23
2023-02-02T00:49:27.797Z,10.55
2023-02-02T00:51:54.604Z,9.48
2023-02-02T00:54:21.755Z,10.63
2023-02-02T00:56:48.584Z,10.07
2023-02-02T00:59:15.358Z,10.13
2023-02-02T01:01:42.082Z,11.13
2023-02-02T01:04:08.897Z,10.02
2023-02-02T01:06:35.905Z,10.15
2023-02-02T01:09:03.058Z,9.23
2023-02-02T01:11:30.987Z,9.90
2023-02-02T01:13:58.074Z,10.55
2023-02-02T01:16:25.275Z,9.52
2023-02-02T01:18:52.406Z,9.75
2023-02-02T01:21:19.616Z,10.50
2023-02-02T01:23:46.466Z,9.98
2023-02-02T01:26:14.299Z,9.05
2023-02-02T01:28:41.616Z,10.13
2023-02-02T01:31:16.764Z,9.70
2023-02-02T01:33:45.003Z,9.53
2023-02-02T01:36:15.450Z,8.98
2023-02-02T01:38:42.542Z,8.73
2023-02-02T01:41:13.643Z,9.98
2023-02-02T01:43:43.981Z,9.18
2023-02-02T01:46:24.637Z,8.85
2023-02-02T01:48:53.843Z,8.95
2023-02-02T01:51:24.092Z,9.40
2023-02-02T01:53:53.722Z,10.50
2023-02-02T01:56:36.644Z,8.82
2023-02-02T01:59:04.658Z,10.65
2023-02-02T02:01:31.771Z,10.23
2023-02-02T02:03:58.968Z,11.88
2023-02-02T02:06:26.143Z,10.75
2023-02-02T02:09:00.285Z,10.50
2023-02-02T02:11:27.289Z,10.50
2023-02-02T02:14:32.653Z,10.68
2023-02-02T02:17:22.311Z,9.93
2023-02-02T02:20:38.993Z,10.93
2023-02-02T02:23:27.116Z,11.10
2023-02-02T02:26:21.454Z,10.65
2023-02-02T02:29:25.396Z,10.60
2023-02-02T02:32:16.699Z,9.90
2023-02-02T02:34:56.745Z,10.30
2023-02-02T02:37:39.784Z,10.27
2023-02-02T02:40:28.348Z,10.02
2023-02-02T02:42:59.439Z,9.98
2023-02-02T02:45:28.009Z,10.73
2023-02-02T02:47:55.370Z,11.98
2023-02-02T02:50:23.076Z,12.38
2023-02-02T02:52:59.864Z,12.23
2023-02-02T02:55:32.913Z,12.13
2023-02-02T02:58:07.996Z,10.85
2023-02-02T03:00:44.009Z,11.60
2023-02-02T03:06:19.797Z,10.85
2023-02-02T03:08:54.233Z,12.07
2023-02-02T03:11:21.428Z,11.50
2023-02-02T03:13:48.938Z,12.85
2023-02-02T03:16:16.527Z,12.82
2023-02-02T03:18:43.605Z,13.25
2023-02-02T03:21:10.430Z,12.70
2023-02-02T03:23:37.346Z,13.77
2023-02-02T03:26:04.270Z,12.40
2023-02-02T03:28:32.150Z,13.13
2023-02-02T03:31:01.440Z,13.10
2023-02-02T03:33:28.593Z,12.20
2023-02-02T03:35:55.288Z,11.38
2023-02-02T03:38:22.049Z,11.63
2023-02-02T03:40:48.777Z,13.05
2023-02-02T03:43:22.436Z,16.65
2023-02-02T03:45:55.061Z,11.30
2023-02-02T03:48:21.748Z,13.00
2023-02-02T03:50:48.447Z,12.25
2023-02-02T03:53:15.152Z,11.98
2023-02-02T03:55:41.975Z,12.30
2023-02-02T03:58:08.698Z,11.45
2023-02-02T04:00:35.487Z,10.50
2023-02-02T04:03:02.282Z,10.73
2023-02-02T04:05:29.198Z,10.55
2023-02-02T04:07:55.951Z,10.27
2023-02-02T04:10:22.971Z,10.00
2023-02-02T04:12:49.781Z,10.98
2023-02-02T04:15:16.574Z,10.93
2023-02-02T04:17:43.480Z,10.20
2023-02-02T04:20:11.260Z,10.48
2023-02-02T04:22:38.018Z,10.35
2023-02-02T04:25:05.080Z,11.38
2023-02-02T04:27:33.967Z,11.63
2023-02-02T04:30:00.909Z,10.13
2023-02-02T04:32:27.639Z,10.48
2023-02-02T04:34:54.339Z,11.43
2023-02-02T04:37:21.099Z,10.93
2023-02-02T04:39:48.689Z,10.50
2023-02-02T04:42:15.483Z,10.68
2023-02-02T04:44:44.029Z,11.70
2023-02-02T04:47:10.711Z,11.30
2023-02-02T04:49:37.929Z,11.38
2023-02-02T04:52:04.900Z,11.40
2023-02-02T04:54:32.318Z,13.32
2023-02-02T04:56:59.029Z,11.95
2023-02-02T04:59:28.586Z,11.10
2023-02-02T05:01:56.436Z,11.02
2023-02-02T05:04:23.220Z,10.93
2023-02-02T05:06:49.941Z,11.57
2023-02-02T05:09:16.796Z,12.02
2023-02-02T05:11:44.576Z,13.18
2023-02-02T05:14:12.091Z,13.38
2023-02-02T05:16:39.712Z,13.65
2023-02-02T05:19:06.482Z,12.98
2023-02-02T05:21:33.261Z,13.10
2023-02-02T05:24:01.485Z,12.57
2023-02-02T05:26:28.232Z,12.07
2023-02-02T05:28:56.038Z,12.90
2023-02-02T05:31:22.843Z,12.23
2023-02-02T05:33:49.639Z,13.25
2023-02-02T05:36:16.333Z,12.60
2023-02-02T05:38:43.056Z,13.00
2023-02-02T05:41:09.835Z,11.20
2023-02-02T05:43:36.717Z,11.07
2023-02-02T05:46:04.043Z,13.10
2023-02-02T05:48:30.880Z,11.43
2023-02-02T05:51:18.760Z,12.43
2023-02-02T05:53:46.180Z,12.98
2023-02-02T05:56:13.485Z,12.82
2023-02-02T05:58:40.297Z,12.35
2023-02-02T06:01:07.209Z,12.82
2023-02-02T06:03:34.142Z,12.85
2023-02-02T06:06:01.092Z,12.32
2023-02-02T06:08:27.894Z,13.70
2023-02-02T06:10:54.658Z,13.38
2023-02-02T06:13:22.143Z,13.77
2023-02-02T06:15:49.360Z,12.38
2023-02-02T06:18:16.164Z,13.57
2023-02-02T06:20:42.967Z,13.73
2023-02-02T06:23:09.801Z,12.02
2023-02-02T06:25:36.499Z,13.02
2023-02-02T06:28:03.547Z,12.98
2023-02-02T06:30:30.333Z,14.23
2023-02-02T06:32:59.396Z,13.02
2023-02-02T06:35:26.433Z,13.40
2023-02-02T06:37:53.740Z,14.25
2023-02-02T06:40:20.618Z,13.55
2023-02-02T06:42:47.289Z,13.80
2023-02-02T06:45:14.005Z,13.10
2023-02-02T06:47:40.819Z,14.10
2023-02-02T06:50:08.802Z,13.20
2023-02-02T06:52:35.599Z,13.00
2023-02-02T06:55:02.320Z,11.90
2023-02-02T06:57:29.076Z,12.23
2023-02-02T06:59:55.855Z,12.93
2023-02-02T07:02:23.504Z,14.75
2023-02-02T07:04:51.197Z,14.18
2023-02-02T07:07:17.934Z,14.32
2023-02-02T07:09:44.644Z,15.15
2023-02-02T07:12:11.447Z,13.95
2023-02-02T07:14:38.287Z,14.73
2023-02-02T07:17:05.319Z,13.27
2023-02-02T07:19:32.183Z,13.52
2023-02-02T07:21:59.048Z,12.63
2023-02-02T07:24:27.554Z,11.80
2023-02-02T07:26:56.775Z,12.27
2023-02-02T07:29:23.579Z,12.10
2023-02-02T07:31:50.384Z,13.20
2023-02-02T07:34:17.130Z,13.50
2023-02-02T07:36:43.821Z,13.15
2023-02-02T07:39:12.056Z,12.15
2023-02-02T07:41:39.019Z,11.65
2023-02-02T07:44:07.029Z,12.50
2023-02-02T07:46:33.930Z,12.15
2023-02-02T07:49:00.944Z,11.25
2023-02-02T07:51:27.693Z,11.82
2023-02-02T07:53:58.464Z,12.45
2023-02-02T07:56:28.160Z,12.27
2023-02-02T07:58:56.561Z,13.15
2023-02-02T08:01:26.109Z,12.20
2023-02-02T08:03:55.064Z,12.30
2023-02-02T08:06:26.078Z,12.77
2023-02-02T08:08:52.765Z,12.75
2023-02-02T08:11:21.608Z,12.30
2023-02-02T08:13:56.993Z,12.88
2023-02-02T08:16:24.895Z,11.93
2023-02-02T08:18:52.254Z,12.23
2023-02-02T08:21:19.727Z,13.80
2023-02-02T08:23:47.325Z,13.65
2023-02-02T08:26:18.816Z,12.68
2023-02-02T08:28:49.089Z,12.68
2023-02-02T08:31:25.209Z,12.48
2023-02-02T08:33:53.990Z,13.05
2023-02-02T08:36:22.861Z,14.27
2023-02-02T08:38:50.020Z,15.45
2023-02-02T08:41:19.163Z,14.13
2023-02-02T08:43:46.038Z,12.50
2023-02-02T08:46:15.005Z,13.07
2023-02-02T08:48:42.243Z,14.48
2023-02-02T08:51:11.636Z,13.45
2023-02-02T08:53:38.955Z,13.07
2023-02-02T08:56:09.478Z,13.20
2023-02-02T08:58:37.422Z,13.90
2023-02-02T09:01:09.297Z,12.95
2023-02-02T09:03:38.911Z,13.02
2023-02-02T09:06:13.932Z,13.15
2023-02-02T09:08:41.430Z,13.15
2023-02-02T09:11:10.960Z,12.55
2023-02-02T09:13:38.830Z,11.40
2023-02-02T09:16:08.446Z,10.75
2023-02-02T09:18:35.352Z,9.80
2023-02-02T09:21:05.401Z,9.48
2023-02-02T09:23:37.574Z,9.38
2023-02-02T09:26:25.844Z,9.60
2023-02-02T09:28:55.385Z,9.45
2023-02-02T09:31:22.858Z,10.48
2023-02-02T09:33:49.867Z,9.18
2023-02-02T09:36:20.397Z,10.48
2023-02-02T09:38:48.159Z,9.95
2023-02-02T09:41:45.994Z,10.13
2023-02-02T09:44:47.761Z,10.85
2023-02-02T09:47:34.812Z,10.38
2023-02-02T09:50:38.200Z,10.20
2023-02-02T09:53:26.454Z,10.85
2023-02-02T09:55:56.776Z,10.63
2023-02-02T09:58:39.840Z,10.80
2023-02-02T10:01:30.206Z,11.35
2023-02-02T10:04:21.656Z,11.38
2023-02-02T10:06:53.654Z,11.88
2023-02-02T10:09:43.537Z,11.18
2023-02-02T10:12:31.898Z,13.23
2023-02-02T10:15:13.742Z,12.45
2023-02-02T10:18:18.515Z,12.70
2023-02-02T10:20:56.212Z,11.30
2023-02-02T10:23:28.791Z,13.68
2023-02-02T10:26:19.883Z,12.35
2023-02-02T10:28:58.238Z,11.98
2023-02-02T10:31:41.003Z,11.52
2023-02-02T10:34:19.880Z,10.85
2023-02-02T10:36:46.564Z,12.77
2023-02-02T10:39:24.580Z,11.93
2023-02-02T10:42:29.635Z,10.48
2023-02-02T10:45:20.584Z,11.25
2023-02-02T10:47:47.482Z,12.15
2023-02-02T10:50:14.291Z,10.77
2023-02-02T10:52:46.340Z,11.98
2023-02-02T10:55:37.038Z,12.63
2023-02-02T10:58:12.991Z,11.88
2023-02-02T11:03:20.207Z,10.43
2023-02-02T11:06:06.042Z,9.75
2023-02-02T11:08:42.306Z,10.02
2023-02-02T11:11:11.189Z,10.95
2023-02-02T11:13:44.183Z,12.13
2023-02-02T11:16:17.023Z,12.38
2023-02-02T11:18:45.758Z,13.18
2023-02-02T11:21:21.647Z,11.38
2023-02-02T11:24:14.620Z,13.43
2023-02-02T11:26:47.527Z,12.85
2023-02-02T11:29:18.640Z,10.38
2023-02-02T11:31:45.749Z,10.10
2023-02-02T11:34:28.295Z,10.00
2023-02-02T11:37:05.754Z,11.68
2023-02-02T11:39:32.525Z,11.45
2023-02-02T11:42:06.382Z,10.98
2023-02-02T11:44:35.787Z,9.80
2023-02-02T11:47:05.444Z,9.77
2023-02-02T11:49:43.259Z,9.40
2023-02-02T11:52:18.960Z,10.30
2023-02-02T11:54:49.236Z,9.05
2023-02-02T11:57:22.126Z,9.38
2023-02-02T12:00:27.351Z,8.63
2023-02-02T12:02:54.503Z,9.40
2023-02-02T12:05:21.138Z,9.32
2023-02-02T12:07:49.130Z,9.18
2023-02-02T12:10:44.004Z,9.30
2023-02-02T12:13:34.770Z,7.82
2023-02-02T12:16:26.229Z,7.60
2023-02-02T12:19:19.044Z,8.07
2023-02-02T12:22:15.777Z,7.95
2023-02-02T12:25:14.882Z,10.05
2023-02-02T12:28:03.732Z,10.27
2023-02-02T12:31:09.184Z,12.35
2023-02-02T12:33:38.737Z,8.95
2023-02-02T12:36:30.550Z,9.15
2023-02-02T12:39:32.629Z,10.77
2023-02-02T12:42:25.111Z,11.48
2023-02-02T12:45:10.117Z,10.52
2023-02-02T12:47:52.035Z,10.82
2023-02-02T12:50:34.064Z,9.70
2023-02-02T12:53:18.665Z,11.90
2023-02-02T12:55:52.857Z,10.55
2023-02-02T12:58:38.993Z,9.73
2023-02-02T13:01:43.023Z,10.60
2023-02-02T13:04:21.872Z,10.98
2023-02-02T13:07:18.159Z,10.70
2023-02-02T13:10:06.152Z,13.13
2023-02-02T13:12:38.359Z,11.65
2023-02-02T13:15:10.030Z,12.43
2023-02-02T13:17:45.129Z,12.77
2023-02-02T13:20:34.467Z,12.13
2023-02-02T13:23:09.048Z,13.50
2023-02-02T13:25:42.343Z,13.75
2023-02-02T13:28:18.582Z,14.57
2023-02-02T13:30:47.781Z,13.55
2023-02-02T13:33:20.117Z,14.52
2023-02-02T13:35:56.545Z,13.60
2023-02-02T13:38:25.503Z,12.20
2023-02-02T13:40:55.633Z,13.73
2023-02-02T13:43:51.603Z,13.43
2023-02-02T13:46:27.316Z,15.82
2023-02-02T13:49:10.797Z,14.07
2023-02-02T13:52:02.045Z,14.73
2023-02-02T13:54:40.984Z,13.48
2023-02-02T13:57:28.229Z,15.50
2023-02-02T14:00:15.434Z,13.15
2023-02-02T14:02:44.235Z,13.10
2023-02-02T14:05:22.120Z,13.82
2023-02-02T14:07:49.398Z,13.70
2023-02-02T14:10:31.708Z,14.27
2023-02-02T14:13:34.714Z,16.27
2023-02-02T14:16:06.079Z,18.90
2023-02-02T14:19:06.696Z,17.02
2023-02-02T14:21:33.486Z,16.42
2023-02-02T14:24:05.409Z,18.00
2023-02-02T14:26:59.560Z,19.05
2023-02-02T14:29:31.461Z,18.85
2023-02-02T14:32:27.833Z,18.50
2023-02-02T14:35:20.362Z,19.38
2023-02-02T14:38:08.144Z,17.77
2023-02-02T14:41:10.386Z,18.67
2023-02-02T14:43:49.654Z,19.20
2023-02-02T14:46:23.432Z,18.30
2023-02-02T14:48:57.191Z,18.35
2023-02-02T14:51:26.917Z,17.20
2023-02-02T14:54:01.251Z,18.00
2023-02-02T14:56:45.601Z,17.85
2023-02-02T14:59:20.277Z,19.48
2023-02-02T15:01:59.587Z,18.42
2023-02-02T15:04:28.476Z,17.77
2023-02-02T15:06:55.991Z,16.65
2023-02-02T15:09:29.368Z,17.42
2023-02-02T15:12:01.013Z,17.13
2023-02-02T15:14:52.892Z,17.73
2023-02-02T15:17:28.575Z,18.20
2023-02-02T15:20:13.871Z,17.60
2023-02-02T15:22:53.853Z,19.65
2023-02-02T15:25:49.613Z,18.63
2023-02-02T15:28:47.314Z,18.55
2023-02-02T15:31:20.372Z,18.25
2023-02-02T15:33:53.696Z,18.52
2023-02-02T15:36:26.701Z,17.92
2023-02-02T15:38:57.879Z,19.25
2023-02-02T15:41:32.863Z,19.98
2023-02-02T15:44:02.347Z,18.92
2023-02-02T15:46:35.127Z,20.13
2023-02-02T15:49:33.267Z,19.85
2023-02-02T15:52:10.190Z,22.60
2023-02-02T15:57:33.830Z,22.65
2023-02-02T16:00:20.840Z,24.52
2023-02-02T16:02:52.112Z,24.85
2023-02-02T16:05:25.198Z,25.08
2023-02-02T16:08:03.706Z,26.63
2023-02-02T16:10:31.924Z,25.60
2023-02-02T16:12:58.981Z,27.05
2023-02-02T16:15:28.377Z,27.27
2023-02-02T16:18:00.763Z,25.63
2023-02-02T16:20:31.444Z,26.13
2023-02-02T16:23:04.347Z,25.02
2023-02-02T16:25:34.633Z,24.23
2023-02-02T16:28:03.289Z,24.25
2023-02-02T16:30:33.192Z,22.52
2023-02-02T16:33:26.720Z,24.15
2023-02-02T16:35:54.189Z,22.77
2023-02-02T16:38:30.660Z,22.55
2023-02-02T16:41:24.641Z,22.95
2023-02-02T16:43:51.693Z,22.40
2023-02-02T16:46:45.965Z,23.83
2023-02-02T16:49:23.443Z,23.80
2023-02-02T16:52:09.971Z,22.35
2023-02-02T16:57:04.740Z,22.75
2023-02-02T16:59:37.713Z,21.13
2023-02-02T17:02:35.466Z,20.63
2023-02-02T17:05:07.802Z,21.77
2023-02-02T17:07:37.945Z,19.95
2023-02-02T17:10:24.235Z,19.70
2023-02-02T17:12:51.065Z,20.33
2023-02-02T17:15:17.894Z,18.75
2023-02-02T17:17:47.777Z,19.52
2023-02-02T17:20:19.215Z,19.23
2023-02-02T17:22:53.209Z,19.83
2023-02-02T17:25:27.786Z,17.60
2023-02-02T17:27:55.924Z,16.25
2023-02-02T17:30:22.947Z,16.85
2023-02-02T17:32:49.701Z,16.65
2023-02-02T17:35:19.421Z,15.98
2023-02-02T17:37:46.316Z,17.88
2023-02-02T17:40:17.848Z,18.83
2023-02-02T17:42:47.190Z,18.27
2023-02-02T17:45:20.171Z,18.45
2023-02-02T17:47:47.158Z,18.25
2023-02-02T17:50:14.237Z,20.77
2023-02-02T17:52:41.442Z,20.60
2023-02-02T17:55:21.355Z,19.88
2023-02-02T17:57:52.710Z,19.35
2023-02-02T18:00:22.930Z,20.02
2023-02-02T18:02:57.595Z,19.08
2023-02-02T18:05:24.750Z,18.83
2023-02-02T18:07:51.935Z,19.35
2023-02-02T18:10:19.531Z,19.38
2023-02-02T18:12:46.283Z,17.85
2023-02-02T18:15:14.827Z,18.73
2023-02-02T18:17:42.277Z,18.10
2023-02-02T18:20:10.542Z,18.10
2023-02-02T18:22:38.279Z,18.92
2023-02-02T18:25:06.095Z,18.92
2023-02-02T18:27:33.016Z,17.58
2023-02-02T18:29:59.915Z,19.00
2023-02-02T18:32:26.764Z,19.45
2023-02-02T18:34:55.857Z,18.75
2023-02-02T18:37:28.339Z,18.25
2023-02-02T18:39:55.202Z,19.10
2023-02-02T18:42:22.221Z,21.08
2023-02-02T18:44:49.024Z,20.00
2023-02-02T18:47:15.929Z,20.17
2023-02-02T18:49:42.758Z,20.88
2023-02-02T18:52:09.475Z,20.15
2023-02-02T18:54:36.368Z,19.70
2023-02-02T18:57:03.307Z,19.73
2023-02-02T18:59:32.401Z,17.65
2023-02-02T19:01:59.202Z,18.33
2023-02-02T19:04:26.084Z,17.55
2023-02-02T19:07:11.586Z,18.52
2023-02-02T19:09:38.388Z,17.25
2023-02-02T19:12:12.748Z,16.55
2023-02-02T19:14:40.744Z,17.05
2023-02-02T19:17:24.703Z,17.27
2023-02-02T19:19:51.513Z,17.15
2023-02-02T19:22:26.989Z,18.42
2023-02-02T19:24:54.006Z,18.70
2023-02-02T19:27:23.557Z,18.75
2023-02-02T19:29:54.113Z,18.13
2023-02-02T19:32:23.535Z,18.58
2023-02-02T19:34:53.280Z,19.48
2023-02-02T19:37:24.889Z,17.33
2023-02-02T19:40:09.071Z,18.33
2023-02-02T19:42:44.443Z,19.35
2023-02-02T19:45:33.166Z,18.63
2023-02-02T19:48:06.919Z,17.77
2023-02-02T19:50:42.258Z,19.17
2023-02-02T19:53:14.924Z,17.50
2023-02-02T19:55:44.106Z,18.75
2023-02-02T19:58:16.835Z,17.58
2023-02-02T20:00:45.001Z,17.52
2023-02-02T20:03:17.466Z,18.75
2023-02-02T20:05:47.306Z,19.33
2023-02-02T20:08:43.077Z,16.67
2023-02-02T20:11:36.137Z,17.38
2023-02-02T20:14:19.253Z,17.25
2023-02-02T20:16:52.579Z,16.75
2023-02-02T20:19:35.276Z,17.15
2023-02-02T20:22:03.526Z,18.17
2023-02-02T20:24:42.401Z,17.80
2023-02-02T20:27:22.774Z,18.25
2023-02-02T20:29:51.596Z,19.38
2023-02-02T20:32:26.611Z,18.48
2023-02-02T20:34:56.994Z,19.63
2023-02-02T20:37:29.314Z,19.00
2023-02-02T20:39:58.857Z,19.08
2023-02-02T20:42:25.907Z,17.83
2023-02-02T20:44:52.961Z,19.08
2023-02-02T20:47:20.176Z,18.00
2023-02-02T20:49:47.593Z,19.73
2023-02-02T20:52:24.085Z,18.98
2023-02-02T20:54:52.062Z,17.88
2023-02-02T20:57:19.062Z,17.45
2023-02-02T20:59:45.786Z,18.08
2023-02-02T21:02:19.378Z,19.42
2023-02-02T21:04:51.527Z,18.48
2023-02-02T21:07:20.968Z,17.38
2023-02-02T21:09:49.986Z,18.13
2023-02-02T21:12:17.763Z,17.38
2023-02-02T21:14:47.744Z,17.65
2023-02-02T21:17:16.049Z,18.42
2023-02-02T21:19:43.572Z,18.17
2023-02-02T21:22:11.132Z,20.02
2023-02-02T21:24:38.268Z,20.77
2023-02-02T21:27:05.255Z,19.48
2023-02-02T21:29:33.129Z,19.02
2023-02-02T21:32:02.754Z,18.45
2023-02-02T21:34:31.036Z,18.40
2023-02-02T21:36:58.905Z,18.73
2023-02-02T21:39:30.477Z,18.73
2023-02-02T21:42:09.571Z,18.60
2023-02-02T21:44:57.943Z,19.50
2023-02-02T21:47:33.977Z,20.63
2023-02-02T21:52:45.071Z,19.13
2023-02-02T21:55:41.467Z,18.50
2023-02-02T21:58:14.098Z,18.20
2023-02-02T22:00:40.995Z,18.83
2023-02-02T22:03:34.290Z,19.15
2023-02-02T22:06:35.770Z,19.38
2023-02-02T22:09:02.449Z,18.73
2023-02-02T22:11:37.282Z,18.05
2023-02-02T22:14:16.952Z,18.40
2023-02-02T22:16:48.708Z,18.25
2023-02-02T22:19:43.506Z,19.40
2023-02-02T22:22:19.077Z,18.10
2023-02-02T22:24:51.012Z,17.83
2023-02-02T22:27:23.910Z,19.00
2023-02-02T22:29:56.873Z,18.95
2023-02-02T22:32:23.568Z,17.27
2023-02-02T22:34:50.317Z,18.95
2023-02-02T22:37:17.034Z,19.90
2023-02-02T22:39:43.758Z,18.67
2023-02-02T22:42:10.846Z,18.70
2023-02-02T22:44:37.602Z,18.33
2023-02-02T22:47:04.588Z,19.55
2023-02-02T22:49:31.492Z,19.05
2023-02-02T22:51:58.241Z,18.10
2023-02-02T22:54:24.975Z,17.73
2023-02-02T22:56:51.665Z,19.00
2023-02-02T22:59:18.417Z,18.73
2023-02-02T23:01:45.106Z,18.65
2023-02-02T23:04:12.026Z,19.42
2023-02-02T23:06:38.851Z,19.13
2023-02-02T23:09:05.525Z,18.83
2023-02-02T23:11:32.278Z,22.00
2023-02-02T23:13:58.961Z,21.30
2023-02-02T23:16:25.701Z,21.30
2023-02-02T23:18:52.479Z,22.55
2023-02-02T23:21:19.225Z,22.00
2023-02-02T23:23:45.928Z,21.23
2023-02-02T23:26:12.635Z,21.60
2023-02-02T23:28:39.399Z,21.00
2023-02-02T23:31:06.370Z,20.35
2023-02-02T23:33:33.253Z,18.60
2023-02-02T23:35:59.988Z,20.80
2023-02-02T23:38:26.697Z,18.73
2023-02-02T23:40:53.476Z,19.08
2023-02-02T23:43:20.203Z,18.00
2023-02-02T23:45:46.930Z,18.88
2023-02-02T23:48:13.820Z,18.67
2023-02-02T23:50:40.890Z,19.23
2023-02-02T23:53:09.737Z,18.85
2023-02-02T23:55:37.163Z,16.67
2023-02-02T23:58:04.069Z,18.05
